sensor_id;sensor_type;location;lat;lon;timestamp;temperature;humidity
2957;DHT22;1488;51.548;7.222;2024-01-25T00:00:17;23.70;54.80
2957;DHT22;1488;51.548;7.222;2024-01-25T00:02:44;23.60;54.80
2957;DHT22;1488;51.548;7.222;2024-01-25T00:05:11;23.60;54.70
2957;DHT22;1488;51.548;7.222;2024-01-25T00:07:46;23.60;54.80
2957;DHT22;1488;51.548;7.222;2024-01-25T00:10:14;23.60;54.70
2957;DHT22;1488;51.548;7.222;2024-01-25T00:12:41;23.60;54.80
2957;DHT22;1488;51.548;7.222;2024-01-25T00:15:09;23.60;54.80
2957;DHT22;1488;51.548;7.222;2024-01-25T00:17:36;23.50;54.70
2957;DHT22;1488;51.548;7.222;2024-01-25T00:20:03;23.50;54.70
2957;DHT22;1488;51.548;7.222;2024-01-25T00:22:30;23.50;54.70
2957;DHT22;1488;51.548;7.222;2024-01-25T00:24:59;23.50;54.70
2957;DHT22;1488;51.548;7.222;2024-01-25T00:27:26;23.50;54.70
2957;DHT22;1488;51.548;7.222;2024-01-25T00:29:52;23.50;54.80
2957;DHT22;1488;51.548;7.222;2024-01-25T00:32:19;23.50;54.80
2957;DHT22;1488;51.548;7.222;2024-01-25T00:34:46;23.50;54.70
2957;DHT22;1488;51.548;7.222;2024-01-25T00:37:14;23.50;54.80
2957;DHT22;1488;51.548;7.222;2024-01-25T00:39:41;23.50;54.80
2957;DHT22;1488;51.548;7.222;2024-01-25T00:42:12;23.50;54.70
2957;DHT22;1488;51.548;7.222;2024-01-25T00:44:40;23.50;54.70
2957;DHT22;1488;51.548;7.222;2024-01-25T00:47:08;23.40;54.60
2957;DHT22;1488;51.548;7.222;2024-01-25T00:49:36;23.40;54.60
2957;DHT22;1488;51.548;7.222;2024-01-25T00:52:03;23.40;54.60
2957;DHT22;1488;51.548;7.222;2024-01-25T00:54:31;23.40;54.70
2957;DHT22;1488;51.548;7.222;2024-01-25T00:56:58;23.40;54.70
2957;DHT22;1488;51.548;7.222;2024-01-25T00:59:27;23.40;54.70
2957;DHT22;1488;51.548;7.222;2024-01-25T01:01:55;23.40;54.70
2957;DHT22;1488;51.548;7.222;2024-01-25T01:04:24;23.30;54.60
2957;DHT22;1488;51.548;7.222;2024-01-25T01:06:51;23.30;54.70
2957;DHT22;1488;51.548;7.222;2024-01-25T01:09:18;23.30;54.70
2957;DHT22;1488;51.548;7.222;2024-01-25T01:11:45;23.30;54.70
2957;DHT22;1488;51.548;7.222;2024-01-25T01:14:12;23.30;54.60
2957;DHT22;1488;51.548;7.222;2024-01-25T01:16:40;23.30;54.70
2957;DHT22;1488;51.548;7.222;2024-01-25T01:19:07;23.30;54.70
2957;DHT22;1488;51.548;7.222;2024-01-25T01:21:33;23.30;54.70
2957;DHT22;1488;51.548;7.222;2024-01-25T01:24:00;23.30;54.70
2957;DHT22;1488;51.548;7.222;2024-01-25T01:26:27;23.30;54.70
2957;DHT22;1488;51.548;7.222;2024-01-25T01:28:54;23.30;54.70
2957;DHT22;1488;51.548;7.222;2024-01-25T01:31:21;23.30;54.70
2957;DHT22;1488;51.548;7.222;2024-01-25T01:33:49;23.20;54.70
2957;DHT22;1488;51.548;7.222;2024-01-25T01:36:16;23.20;54.70
2957;DHT22;1488;51.548;7.222;2024-01-25T01:38:42;23.20;54.70
2957;DHT22;1488;51.548;7.222;2024-01-25T01:41:09;23.30;54.80
2957;DHT22;1488;51.548;7.222;2024-01-25T01:43:38;23.20;54.70
2957;DHT22;1488;51.548;7.222;2024-01-25T01:46:10;23.20;55.30
2957;DHT22;1488;51.548;7.222;2024-01-25T01:48:39;23.30;54.90
2957;DHT22;1488;51.548;7.222;2024-01-25T01:51:07;23.20;54.80
2957;DHT22;1488;51.548;7.222;2024-01-25T01:53:35;23.20;54.80
2957;DHT22;1488;51.548;7.222;2024-01-25T01:56:03;23.30;54.90
2957;DHT22;1488;51.548;7.222;2024-01-25T01:58:30;23.20;54.80
2957;DHT22;1488;51.548;7.222;2024-01-25T02:00:59;23.20;54.80
2957;DHT22;1488;51.548;7.222;2024-01-25T02:03:26;23.20;54.80
2957;DHT22;1488;51.548;7.222;2024-01-25T02:05:53;23.20;54.80
2957;DHT22;1488;51.548;7.222;2024-01-25T02:08:21;23.20;54.80
2957;DHT22;1488;51.548;7.222;2024-01-25T02:10:48;23.20;54.70
2957;DHT22;1488;51.548;7.222;2024-01-25T02:13:15;23.20;54.70
2957;DHT22;1488;51.548;7.222;2024-01-25T02:15:42;23.20;54.70
2957;DHT22;1488;51.548;7.222;2024-01-25T02:18:09;23.20;54.70
2957;DHT22;1488;51.548;7.222;2024-01-25T02:20:36;23.20;54.70
2957;DHT22;1488;51.548;7.222;2024-01-25T02:23:04;23.20;54.60
2957;DHT22;1488;51.548;7.222;2024-01-25T02:25:31;23.20;54.60
2957;DHT22;1488;51.548;7.222;2024-01-25T02:27:58;23.20;54.60
2957;DHT22;1488;51.548;7.222;2024-01-25T02:30:25;23.20;54.60
2957;DHT22;1488;51.548;7.222;2024-01-25T02:32:51;23.20;54.60
2957;DHT22;1488;51.548;7.222;2024-01-25T02:35:19;23.20;54.60
2957;DHT22;1488;51.548;7.222;2024-01-25T02:37:46;23.20;54.60
2957;DHT22;1488;51.548;7.222;2024-01-25T02:40:14;23.20;54.60
2957;DHT22;1488;51.548;7.222;2024-01-25T02:42:41;23.20;54.60
2957;DHT22;1488;51.548;7.222;2024-01-25T02:45:09;23.20;54.60
2957;DHT22;1488;51.548;7.222;2024-01-25T02:47:36;23.20;54.60
2957;DHT22;1488;51.548;7.222;2024-01-25T02:50:03;23.30;54.60
2957;DHT22;1488;51.548;7.222;2024-01-25T02:52:29;23.20;54.60
2957;DHT22;1488;51.548;7.222;2024-01-25T02:54:56;23.30;54.60
2957;DHT22;1488;51.548;7.222;2024-01-25T02:57:25;23.20;54.60
2957;DHT22;1488;51.548;7.222;2024-01-25T02:59:52;23.20;54.50
2957;DHT22;1488;51.548;7.222;2024-01-25T03:02:19;23.20;54.50
2957;DHT22;1488;51.548;7.222;2024-01-25T03:04:45;23.30;54.60
2957;DHT22;1488;51.548;7.222;2024-01-25T03:07:12;23.30;54.60
2957;DHT22;1488;51.548;7.222;2024-01-25T03:09:39;23.20;54.50
2957;DHT22;1488;51.548;7.222;2024-01-25T03:12:06;23.20;54.50
2957;DHT22;1488;51.548;7.222;2024-01-25T03:14:34;23.20;54.50
2957;DHT22;1488;51.548;7.222;2024-01-25T03:17:01;23.20;54.50
2957;DHT22;1488;51.548;7.222;2024-01-25T03:19:28;23.20;54.50
2957;DHT22;1488;51.548;7.222;2024-01-25T03:21:55;23.20;54.50
2957;DHT22;1488;51.548;7.222;2024-01-25T03:24:22;23.30;54.50
2957;DHT22;1488;51.548;7.222;2024-01-25T03:26:49;23.20;54.50
2957;DHT22;1488;51.548;7.222;2024-01-25T03:29:16;23.30;54.50
2957;DHT22;1488;51.548;7.222;2024-01-25T03:31:44;23.20;54.40
2957;DHT22;1488;51.548;7.222;2024-01-25T03:34:11;23.30;54.50
2957;DHT22;1488;51.548;7.222;2024-01-25T03:36:38;23.30;54.50
2957;DHT22;1488;51.548;7.222;2024-01-25T03:39:06;23.20;55.00
2957;DHT22;1488;51.548;7.222;2024-01-25T03:41:33;23.30;54.40
2957;DHT22;1488;51.548;7.222;2024-01-25T03:44:00;23.30;54.40
2957;DHT22;1488;51.548;7.222;2024-01-25T03:46:27;23.30;54.40
2957;DHT22;1488;51.548;7.222;2024-01-25T03:48:55;23.30;54.40
2957;DHT22;1488;51.548;7.222;2024-01-25T03:51:22;23.30;54.40
2957;DHT22;1488;51.548;7.222;2024-01-25T03:53:49;23.20;54.30
2957;DHT22;1488;51.548;7.222;2024-01-25T03:56:18;23.30;54.40
2957;DHT22;1488;51.548;7.222;2024-01-25T03:58:45;23.20;54.40
2957;DHT22;1488;51.548;7.222;2024-01-25T04:01:12;23.30;54.40
2957;DHT22;1488;51.548;7.222;2024-01-25T04:03:39;23.30;54.30
2957;DHT22;1488;51.548;7.222;2024-01-25T04:06:08;23.40;54.40
2957;DHT22;1488;51.548;7.222;2024-01-25T04:08:35;23.30;54.30
2957;DHT22;1488;51.548;7.222;2024-01-25T04:11:01;23.30;54.40
2957;DHT22;1488;51.548;7.222;2024-01-25T04:13:28;23.30;54.30
2957;DHT22;1488;51.548;7.222;2024-01-25T04:15:55;23.20;54.20
2957;DHT22;1488;51.548;7.222;2024-01-25T04:18:22;23.30;54.30
2957;DHT22;1488;51.548;7.222;2024-01-25T04:20:49;23.30;54.40
2957;DHT22;1488;51.548;7.222;2024-01-25T04:23:17;23.20;54.30
2957;DHT22;1488;51.548;7.222;2024-01-25T04:25:44;23.20;54.30
2957;DHT22;1488;51.548;7.222;2024-01-25T04:28:11;23.20;54.30
2957;DHT22;1488;51.548;7.222;2024-01-25T04:30:38;23.20;54.30
2957;DHT22;1488;51.548;7.222;2024-01-25T04:33:05;23.20;54.30
2957;DHT22;1488;51.548;7.222;2024-01-25T04:35:32;23.20;54.30
2957;DHT22;1488;51.548;7.222;2024-01-25T04:37:58;23.20;54.40
2957;DHT22;1488;51.548;7.222;2024-01-25T04:40:27;23.20;54.30
2957;DHT22;1488;51.548;7.222;2024-01-25T04:42:54;23.20;54.30
2957;DHT22;1488;51.548;7.222;2024-01-25T04:45:20;23.20;54.30
2957;DHT22;1488;51.548;7.222;2024-01-25T04:47:47;23.20;54.30
2957;DHT22;1488;51.548;7.222;2024-01-25T04:50:14;23.10;54.30
2957;DHT22;1488;51.548;7.222;2024-01-25T04:52:41;23.20;54.30
2957;DHT22;1488;51.548;7.222;2024-01-25T04:55:08;23.20;54.30
2957;DHT22;1488;51.548;7.222;2024-01-25T04:57:37;23.20;54.30
2957;DHT22;1488;51.548;7.222;2024-01-25T05:00:04;23.30;54.40
2957;DHT22;1488;51.548;7.222;2024-01-25T05:02:32;23.20;54.20
2957;DHT22;1488;51.548;7.222;2024-01-25T05:04:59;23.30;54.20
2957;DHT22;1488;51.548;7.222;2024-01-25T05:07:25;23.30;54.20
2957;DHT22;1488;51.548;7.222;2024-01-25T05:09:52;23.20;54.20
2957;DHT22;1488;51.548;7.222;2024-01-25T05:12:19;23.20;54.20
2957;DHT22;1488;51.548;7.222;2024-01-25T05:14:47;23.20;54.10
2957;DHT22;1488;51.548;7.222;2024-01-25T05:17:14;23.30;54.20
2957;DHT22;1488;51.548;7.222;2024-01-25T05:19:41;23.20;54.10
2957;DHT22;1488;51.548;7.222;2024-01-25T05:22:07;23.30;54.10
2957;DHT22;1488;51.548;7.222;2024-01-25T05:24:34;23.30;54.20
2957;DHT22;1488;51.548;7.222;2024-01-25T05:27:01;23.30;54.20
2957;DHT22;1488;51.548;7.222;2024-01-25T05:29:28;23.30;54.20
2957;DHT22;1488;51.548;7.222;2024-01-25T05:31:56;23.20;54.10
2957;DHT22;1488;51.548;7.222;2024-01-25T05:34:24;23.30;54.10
2957;DHT22;1488;51.548;7.222;2024-01-25T05:36:51;23.30;54.10
2957;DHT22;1488;51.548;7.222;2024-01-25T05:39:19;23.30;54.10
2957;DHT22;1488;51.548;7.222;2024-01-25T05:41:46;23.30;54.10
2957;DHT22;1488;51.548;7.222;2024-01-25T05:44:13;23.30;54.10
2957;DHT22;1488;51.548;7.222;2024-01-25T05:46:40;23.40;54.10
2957;DHT22;1488;51.548;7.222;2024-01-25T05:49:08;23.30;54.00
2957;DHT22;1488;51.548;7.222;2024-01-25T05:51:35;23.30;54.00
2957;DHT22;1488;51.548;7.222;2024-01-25T05:54:02;23.30;54.00
2957;DHT22;1488;51.548;7.222;2024-01-25T05:56:29;23.30;54.00
2957;DHT22;1488;51.548;7.222;2024-01-25T05:58:56;23.40;54.00
2957;DHT22;1488;51.548;7.222;2024-01-25T06:01:23;23.30;54.00
2957;DHT22;1488;51.548;7.222;2024-01-25T06:03:50;23.30;54.00
2957;DHT22;1488;51.548;7.222;2024-01-25T06:06:18;23.30;54.00
2957;DHT22;1488;51.548;7.222;2024-01-25T06:08:45;23.30;53.90
2957;DHT22;1488;51.548;7.222;2024-01-25T06:11:12;23.30;53.90
2957;DHT22;1488;51.548;7.222;2024-01-25T06:13:38;23.30;53.90
2957;DHT22;1488;51.548;7.222;2024-01-25T06:16:05;23.30;54.00
2957;DHT22;1488;51.548;7.222;2024-01-25T06:18:32;23.30;53.90
2957;DHT22;1488;51.548;7.222;2024-01-25T06:20:59;23.30;53.90
2957;DHT22;1488;51.548;7.222;2024-01-25T06:23:27;23.40;54.00
2957;DHT22;1488;51.548;7.222;2024-01-25T06:25:54;23.30;53.80
2957;DHT22;1488;51.548;7.222;2024-01-25T06:28:21;23.30;53.90
2957;DHT22;1488;51.548;7.222;2024-01-25T06:30:47;23.30;53.90
2957;DHT22;1488;51.548;7.222;2024-01-25T06:33:14;23.30;53.90
2957;DHT22;1488;51.548;7.222;2024-01-25T06:35:41;23.30;53.90
2957;DHT22;1488;51.548;7.222;2024-01-25T06:38:08;23.40;53.90
2957;DHT22;1488;51.548;7.222;2024-01-25T06:40:36;23.40;53.90
2957;DHT22;1488;51.548;7.222;2024-01-25T06:43:04;23.30;53.80
2957;DHT22;1488;51.548;7.222;2024-01-25T06:45:30;23.30;53.70
2957;DHT22;1488;51.548;7.222;2024-01-25T06:47:58;23.40;53.90
2957;DHT22;1488;51.548;7.222;2024-01-25T06:50:25;23.30;53.80
2957;DHT22;1488;51.548;7.222;2024-01-25T06:52:52;23.30;53.80
2957;DHT22;1488;51.548;7.222;2024-01-25T06:55:19;23.30;53.80
2957;DHT22;1488;51.548;7.222;2024-01-25T06:57:47;23.30;53.80
2957;DHT22;1488;51.548;7.222;2024-01-25T07:00:15;23.40;53.80
2957;DHT22;1488;51.548;7.222;2024-01-25T07:02:42;23.40;53.90
2957;DHT22;1488;51.548;7.222;2024-01-25T07:05:10;23.40;53.80
2957;DHT22;1488;51.548;7.222;2024-01-25T07:07:37;23.40;53.80
2957;DHT22;1488;51.548;7.222;2024-01-25T07:10:05;23.40;53.80
2957;DHT22;1488;51.548;7.222;2024-01-25T07:12:32;23.40;53.80
2957;DHT22;1488;51.548;7.222;2024-01-25T07:15:01;23.40;53.80
2957;DHT22;1488;51.548;7.222;2024-01-25T07:17:28;23.40;53.80
2957;DHT22;1488;51.548;7.222;2024-01-25T07:19:55;23.50;53.80
2957;DHT22;1488;51.548;7.222;2024-01-25T07:22:22;23.60;53.80
2957;DHT22;1488;51.548;7.222;2024-01-25T07:24:48;23.50;53.90
2957;DHT22;1488;51.548;7.222;2024-01-25T07:27:15;23.50;53.80
2957;DHT22;1488;51.548;7.222;2024-01-25T07:29:43;23.50;53.80
2957;DHT22;1488;51.548;7.222;2024-01-25T07:32:12;23.50;53.90
2957;DHT22;1488;51.548;7.222;2024-01-25T07:34:39;23.50;53.90
2957;DHT22;1488;51.548;7.222;2024-01-25T07:37:06;23.50;53.90
2957;DHT22;1488;51.548;7.222;2024-01-25T07:39:32;23.40;53.90
2957;DHT22;1488;51.548;7.222;2024-01-25T07:41:59;23.50;54.10
2957;DHT22;1488;51.548;7.222;2024-01-25T07:44:26;23.50;54.00
2957;DHT22;1488;51.548;7.222;2024-01-25T07:46:53;23.50;53.90
2957;DHT22;1488;51.548;7.222;2024-01-25T07:49:21;23.50;54.00
2957;DHT22;1488;51.548;7.222;2024-01-25T07:51:48;23.50;53.70
2957;DHT22;1488;51.548;7.222;2024-01-25T07:54:15;23.50;53.90
2957;DHT22;1488;51.548;7.222;2024-01-25T07:56:41;23.50;54.00
2957;DHT22;1488;51.548;7.222;2024-01-25T07:59:08;23.50;54.10
2957;DHT22;1488;51.548;7.222;2024-01-25T08:01:35;23.50;54.20
2957;DHT22;1488;51.548;7.222;2024-01-25T08:04:02;23.50;54.00
2957;DHT22;1488;51.548;7.222;2024-01-25T08:06:30;23.50;54.10
2957;DHT22;1488;51.548;7.222;2024-01-25T08:08:57;23.50;54.20
2957;DHT22;1488;51.548;7.222;2024-01-25T08:11:24;23.60;54.30
2957;DHT22;1488;51.548;7.222;2024-01-25T08:13:51;23.50;54.00
2957;DHT22;1488;51.548;7.222;2024-01-25T08:16:18;23.60;54.10
2957;DHT22;1488;51.548;7.222;2024-01-25T08:18:45;23.50;54.00
2957;DHT22;1488;51.548;7.222;2024-01-25T08:21:13;23.50;54.10
2957;DHT22;1488;51.548;7.222;2024-01-25T08:23:41;23.50;54.10
2957;DHT22;1488;51.548;7.222;2024-01-25T08:26:08;23.60;54.20
2957;DHT22;1488;51.548;7.222;2024-01-25T08:28:39;23.60;54.20
2957;DHT22;1488;51.548;7.222;2024-01-25T08:31:06;23.70;54.20
2957;DHT22;1488;51.548;7.222;2024-01-25T08:33:33;23.60;54.00
2957;DHT22;1488;51.548;7.222;2024-01-25T08:35:59;23.60;53.80
2957;DHT22;1488;51.548;7.222;2024-01-25T08:38:27;23.50;53.60
2957;DHT22;1488;51.548;7.222;2024-01-25T08:40:55;23.60;53.80
2957;DHT22;1488;51.548;7.222;2024-01-25T08:43:21;23.60;53.80
2957;DHT22;1488;51.548;7.222;2024-01-25T08:45:48;23.50;53.00
2957;DHT22;1488;51.548;7.222;2024-01-25T08:48:15;23.40;53.20
2957;DHT22;1488;51.548;7.222;2024-01-25T08:50:42;23.40;53.30
2957;DHT22;1488;51.548;7.222;2024-01-25T08:53:09;23.30;53.40
2957;DHT22;1488;51.548;7.222;2024-01-25T08:55:36;23.40;53.70
2957;DHT22;1488;51.548;7.222;2024-01-25T08:58:04;23.40;53.80
2957;DHT22;1488;51.548;7.222;2024-01-25T09:00:31;23.40;53.70
2957;DHT22;1488;51.548;7.222;2024-01-25T09:02:58;23.40;53.70
2957;DHT22;1488;51.548;7.222;2024-01-25T09:05:25;23.50;53.80
2957;DHT22;1488;51.548;7.222;2024-01-25T09:07:53;23.50;53.70
2957;DHT22;1488;51.548;7.222;2024-01-25T09:10:20;23.50;53.60
2957;DHT22;1488;51.548;7.222;2024-01-25T09:12:48;23.60;53.70
2957;DHT22;1488;51.548;7.222;2024-01-25T09:15:18;23.60;53.70
2957;DHT22;1488;51.548;7.222;2024-01-25T09:17:44;23.60;53.70
2957;DHT22;1488;51.548;7.222;2024-01-25T09:20:11;23.60;53.60
2957;DHT22;1488;51.548;7.222;2024-01-25T09:22:38;23.70;53.60
2957;DHT22;1488;51.548;7.222;2024-01-25T09:25:05;23.70;53.60
2957;DHT22;1488;51.548;7.222;2024-01-25T09:27:33;23.80;53.70
2957;DHT22;1488;51.548;7.222;2024-01-25T09:29:59;23.80;53.70
2957;DHT22;1488;51.548;7.222;2024-01-25T09:32:27;23.90;53.70
2957;DHT22;1488;51.548;7.222;2024-01-25T09:34:54;23.90;53.60
2957;DHT22;1488;51.548;7.222;2024-01-25T09:37:21;24.00;53.70
2957;DHT22;1488;51.548;7.222;2024-01-25T09:39:49;24.00;53.60
2957;DHT22;1488;51.548;7.222;2024-01-25T09:42:16;24.00;53.60
2957;DHT22;1488;51.548;7.222;2024-01-25T09:44:43;24.10;53.70
2957;DHT22;1488;51.548;7.222;2024-01-25T09:47:11;24.10;53.70
2957;DHT22;1488;51.548;7.222;2024-01-25T09:49:39;24.10;53.70
2957;DHT22;1488;51.548;7.222;2024-01-25T09:52:12;24.20;53.70
2957;DHT22;1488;51.548;7.222;2024-01-25T09:54:39;24.20;53.70
2957;DHT22;1488;51.548;7.222;2024-01-25T09:57:12;24.20;53.80
2957;DHT22;1488;51.548;7.222;2024-01-25T09:59:40;24.20;53.80
2957;DHT22;1488;51.548;7.222;2024-01-25T10:02:08;24.20;53.80
2957;DHT22;1488;51.548;7.222;2024-01-25T10:04:36;24.20;53.70
2957;DHT22;1488;51.548;7.222;2024-01-25T10:07:04;24.20;53.30
2957;DHT22;1488;51.548;7.222;2024-01-25T10:09:38;24.20;53.20
2957;DHT22;1488;51.548;7.222;2024-01-25T10:12:06;24.30;53.10
2957;DHT22;1488;51.548;7.222;2024-01-25T10:14:32;24.20;53.00
2957;DHT22;1488;51.548;7.222;2024-01-25T10:17:00;24.30;53.00
2957;DHT22;1488;51.548;7.222;2024-01-25T10:19:28;24.40;53.00
2957;DHT22;1488;51.548;7.222;2024-01-25T10:21:55;24.40;52.90
2957;DHT22;1488;51.548;7.222;2024-01-25T10:24:23;24.50;52.80
2957;DHT22;1488;51.548;7.222;2024-01-25T10:26:50;24.70;52.70
2957;DHT22;1488;51.548;7.222;2024-01-25T10:29:17;24.80;52.60
2957;DHT22;1488;51.548;7.222;2024-01-25T10:31:44;24.90;52.60
2957;DHT22;1488;51.548;7.222;2024-01-25T10:34:13;25.00;52.50
2957;DHT22;1488;51.548;7.222;2024-01-25T10:36:40;25.00;52.50
2957;DHT22;1488;51.548;7.222;2024-01-25T10:39:08;25.20;52.70
2957;DHT22;1488;51.548;7.222;2024-01-25T10:41:37;25.10;52.70
2957;DHT22;1488;51.548;7.222;2024-01-25T10:44:04;25.00;52.80
2957;DHT22;1488;51.548;7.222;2024-01-25T10:46:33;24.90;52.80
2957;DHT22;1488;51.548;7.222;2024-01-25T10:49:00;24.80;52.70
2957;DHT22;1488;51.548;7.222;2024-01-25T10:51:29;24.70;52.80
2957;DHT22;1488;51.548;7.222;2024-01-25T10:53:56;24.70;53.00
2957;DHT22;1488;51.548;7.222;2024-01-25T10:56:24;24.70;53.10
2957;DHT22;1488;51.548;7.222;2024-01-25T10:58:53;24.60;53.10
2957;DHT22;1488;51.548;7.222;2024-01-25T11:01:20;24.60;53.10
2957;DHT22;1488;51.548;7.222;2024-01-25T11:03:47;24.60;53.20
2957;DHT22;1488;51.548;7.222;2024-01-25T11:06:14;24.60;53.30
2957;DHT22;1488;51.548;7.222;2024-01-25T11:08:41;24.50;53.30
2957;DHT22;1488;51.548;7.222;2024-01-25T11:11:10;24.50;53.40
2957;DHT22;1488;51.548;7.222;2024-01-25T11:13:39;24.40;53.40
2957;DHT22;1488;51.548;7.222;2024-01-25T11:16:17;24.50;53.50
2957;DHT22;1488;51.548;7.222;2024-01-25T11:18:50;24.50;53.60
2957;DHT22;1488;51.548;7.222;2024-01-25T11:21:25;24.40;53.60
2957;DHT22;1488;51.548;7.222;2024-01-25T11:24:00;24.40;53.60
2957;DHT22;1488;51.548;7.222;2024-01-25T11:26:27;24.40;53.60
2957;DHT22;1488;51.548;7.222;2024-01-25T11:28:54;24.40;53.60
2957;DHT22;1488;51.548;7.222;2024-01-25T11:31:23;24.40;53.70
2957;DHT22;1488;51.548;7.222;2024-01-25T11:33:50;24.40;53.70
2957;DHT22;1488;51.548;7.222;2024-01-25T11:36:20;24.40;53.60
2957;DHT22;1488;51.548;7.222;2024-01-25T11:38:48;24.40;53.20
2957;DHT22;1488;51.548;7.222;2024-01-25T11:41:15;24.40;53.60
2957;DHT22;1488;51.548;7.222;2024-01-25T11:43:42;24.40;53.50
2957;DHT22;1488;51.548;7.222;2024-01-25T11:46:09;24.40;53.60
2957;DHT22;1488;51.548;7.222;2024-01-25T11:48:40;24.40;53.70
2957;DHT22;1488;51.548;7.222;2024-01-25T11:51:09;24.40;53.70
2957;DHT22;1488;51.548;7.222;2024-01-25T11:53:36;24.40;53.80
2957;DHT22;1488;51.548;7.222;2024-01-25T11:56:04;24.40;53.80
2957;DHT22;1488;51.548;7.222;2024-01-25T11:58:33;24.40;53.90
2957;DHT22;1488;51.548;7.222;2024-01-25T12:01:00;24.40;54.10
2957;DHT22;1488;51.548;7.222;2024-01-25T12:03:29;24.40;54.50
2957;DHT22;1488;51.548;7.222;2024-01-25T12:05:57;24.40;55.40
2957;DHT22;1488;51.548;7.222;2024-01-25T12:08:25;24.30;55.70
2957;DHT22;1488;51.548;7.222;2024-01-25T12:11:02;24.30;55.90
2957;DHT22;1488;51.548;7.222;2024-01-25T12:13:32;24.30;56.80
2957;DHT22;1488;51.548;7.222;2024-01-25T12:15:59;24.30;57.40
2957;DHT22;1488;51.548;7.222;2024-01-25T12:18:27;24.30;57.70
2957;DHT22;1488;51.548;7.222;2024-01-25T12:20:54;24.30;58.60
2957;DHT22;1488;51.548;7.222;2024-01-25T12:23:22;24.30;58.50
2957;DHT22;1488;51.548;7.222;2024-01-25T12:25:49;24.30;58.60
2957;DHT22;1488;51.548;7.222;2024-01-25T12:28:16;24.30;58.20
2957;DHT22;1488;51.548;7.222;2024-01-25T12:30:43;24.30;58.40
2957;DHT22;1488;51.548;7.222;2024-01-25T12:33:10;24.30;58.40
2957;DHT22;1488;51.548;7.222;2024-01-25T12:35:37;24.30;58.50
2957;DHT22;1488;51.548;7.222;2024-01-25T12:38:04;24.30;58.60
2957;DHT22;1488;51.548;7.222;2024-01-25T12:40:32;24.30;58.30
2957;DHT22;1488;51.548;7.222;2024-01-25T12:42:59;24.30;57.70
2957;DHT22;1488;51.548;7.222;2024-01-25T12:45:26;24.20;55.90
2957;DHT22;1488;51.548;7.222;2024-01-25T12:47:52;24.30;57.30
2957;DHT22;1488;51.548;7.222;2024-01-25T12:50:19;24.30;57.50
2957;DHT22;1488;51.548;7.222;2024-01-25T12:52:48;24.30;57.50
2957;DHT22;1488;51.548;7.222;2024-01-25T12:55:16;24.30;57.50
2957;DHT22;1488;51.548;7.222;2024-01-25T12:57:44;24.30;57.50
2957;DHT22;1488;51.548;7.222;2024-01-25T13:00:12;24.30;57.60
2957;DHT22;1488;51.548;7.222;2024-01-25T13:02:39;24.30;57.60
2957;DHT22;1488;51.548;7.222;2024-01-25T13:05:06;24.30;57.60
2957;DHT22;1488;51.548;7.222;2024-01-25T13:07:33;24.30;57.60
2957;DHT22;1488;51.548;7.222;2024-01-25T13:10:00;24.30;57.60
2957;DHT22;1488;51.548;7.222;2024-01-25T13:12:27;24.30;57.60
2957;DHT22;1488;51.548;7.222;2024-01-25T13:14:55;24.30;57.50
2957;DHT22;1488;51.548;7.222;2024-01-25T13:17:22;24.30;57.30
2957;DHT22;1488;51.548;7.222;2024-01-25T13:19:50;24.30;57.30
2957;DHT22;1488;51.548;7.222;2024-01-25T13:22:17;24.40;57.20
2957;DHT22;1488;51.548;7.222;2024-01-25T13:24:46;24.40;57.10
2957;DHT22;1488;51.548;7.222;2024-01-25T13:27:13;24.40;57.10
2957;DHT22;1488;51.548;7.222;2024-01-25T13:29:40;24.40;57.00
2957;DHT22;1488;51.548;7.222;2024-01-25T13:32:08;24.40;56.90
2957;DHT22;1488;51.548;7.222;2024-01-25T13:34:36;24.40;56.80
2957;DHT22;1488;51.548;7.222;2024-01-25T13:37:03;24.30;56.70
2957;DHT22;1488;51.548;7.222;2024-01-25T13:39:30;24.40;56.70
2957;DHT22;1488;51.548;7.222;2024-01-25T13:41:57;24.40;56.60
2957;DHT22;1488;51.548;7.222;2024-01-25T13:44:25;24.40;56.60
2957;DHT22;1488;51.548;7.222;2024-01-25T13:46:51;24.40;57.20
2957;DHT22;1488;51.548;7.222;2024-01-25T13:49:21;24.40;56.60
2957;DHT22;1488;51.548;7.222;2024-01-25T13:51:48;24.40;56.50
2957;DHT22;1488;51.548;7.222;2024-01-25T13:54:15;24.40;56.50
2957;DHT22;1488;51.548;7.222;2024-01-25T13:56:41;24.30;56.30
2957;DHT22;1488;51.548;7.222;2024-01-25T13:59:11;24.30;56.30
2957;DHT22;1488;51.548;7.222;2024-01-25T14:01:38;24.30;56.30
2957;DHT22;1488;51.548;7.222;2024-01-25T14:04:05;24.30;56.20
2957;DHT22;1488;51.548;7.222;2024-01-25T14:06:34;24.40;56.40
2957;DHT22;1488;51.548;7.222;2024-01-25T14:09:00;24.50;56.30
2957;DHT22;1488;51.548;7.222;2024-01-25T14:11:27;24.30;56.20
2957;DHT22;1488;51.548;7.222;2024-01-25T14:13:54;24.30;56.20
2957;DHT22;1488;51.548;7.222;2024-01-25T14:16:21;24.40;56.20
2957;DHT22;1488;51.548;7.222;2024-01-25T14:18:48;24.30;56.10
2957;DHT22;1488;51.548;7.222;2024-01-25T14:21:14;24.30;56.10
2957;DHT22;1488;51.548;7.222;2024-01-25T14:23:43;24.30;56.00
2957;DHT22;1488;51.548;7.222;2024-01-25T14:26:10;24.30;56.00
2957;DHT22;1488;51.548;7.222;2024-01-25T14:28:36;24.40;56.00
2957;DHT22;1488;51.548;7.222;2024-01-25T14:31:03;24.30;55.90
2957;DHT22;1488;51.548;7.222;2024-01-25T14:33:30;24.30;55.80
2957;DHT22;1488;51.548;7.222;2024-01-25T14:35:57;24.30;55.80
2957;DHT22;1488;51.548;7.222;2024-01-25T14:38:24;24.30;55.80
2957;DHT22;1488;51.548;7.222;2024-01-25T14:40:52;24.30;55.80
2957;DHT22;1488;51.548;7.222;2024-01-25T14:43:18;24.40;55.80
2957;DHT22;1488;51.548;7.222;2024-01-25T14:45:45;24.30;55.70
2957;DHT22;1488;51.548;7.222;2024-01-25T14:48:12;24.20;55.70
2957;DHT22;1488;51.548;7.222;2024-01-25T14:50:39;24.30;55.70
2957;DHT22;1488;51.548;7.222;2024-01-25T14:53:05;24.20;55.60
2957;DHT22;1488;51.548;7.222;2024-01-25T14:55:32;24.20;55.60
2957;DHT22;1488;51.548;7.222;2024-01-25T14:58:00;24.20;55.50
2957;DHT22;1488;51.548;7.222;2024-01-25T15:00:27;24.20;56.10
2957;DHT22;1488;51.548;7.222;2024-01-25T15:02:54;24.20;55.50
2957;DHT22;1488;51.548;7.222;2024-01-25T15:05:22;24.20;55.50
2957;DHT22;1488;51.548;7.222;2024-01-25T15:07:49;24.20;55.50
2957;DHT22;1488;51.548;7.222;2024-01-25T15:10:16;24.30;55.50
2957;DHT22;1488;51.548;7.222;2024-01-25T15:12:43;24.20;55.40
2957;DHT22;1488;51.548;7.222;2024-01-25T15:15:12;24.20;55.40
2957;DHT22;1488;51.548;7.222;2024-01-25T15:17:39;24.20;55.40
2957;DHT22;1488;51.548;7.222;2024-01-25T15:20:07;24.20;55.40
2957;DHT22;1488;51.548;7.222;2024-01-25T15:22:34;24.20;55.30
2957;DHT22;1488;51.548;7.222;2024-01-25T15:25:01;24.20;55.40
2957;DHT22;1488;51.548;7.222;2024-01-25T15:27:27;24.20;55.30
2957;DHT22;1488;51.548;7.222;2024-01-25T15:29:54;24.20;55.30
2957;DHT22;1488;51.548;7.222;2024-01-25T15:32:22;24.20;54.60
2957;DHT22;1488;51.548;7.222;2024-01-25T15:34:49;24.10;54.80
2957;DHT22;1488;51.548;7.222;2024-01-25T15:37:16;24.10;55.30
2957;DHT22;1488;51.548;7.222;2024-01-25T15:39:43;24.20;56.50
2957;DHT22;1488;51.548;7.222;2024-01-25T15:42:10;24.20;56.20
2957;DHT22;1488;51.548;7.222;2024-01-25T15:44:37;24.20;56.30
2957;DHT22;1488;51.548;7.222;2024-01-25T15:47:05;24.20;56.30
2957;DHT22;1488;51.548;7.222;2024-01-25T15:49:41;24.10;54.60
2957;DHT22;1488;51.548;7.222;2024-01-25T15:52:07;24.10;54.50
2957;DHT22;1488;51.548;7.222;2024-01-25T15:54:34;24.10;55.20
2957;DHT22;1488;51.548;7.222;2024-01-25T15:57:04;24.10;55.60
2957;DHT22;1488;51.548;7.222;2024-01-25T16:45:47;24.10;55.60
2957;DHT22;1488;51.548;7.222;2024-01-25T16:48:14;24.00;55.60